Lower Matecumbe Key, Florida
Current Conditions -  °F | °C
As of 5:53 PM on Sunday 21 Dec 2014 (Local Time) from KMTH Reporting Station
Scattered Clouds Scattered Clouds  
Wind Chill: 76°   Ceiling: Unl
Heat Index: 76°   Visibility: 10mi
Dew Point: 69°   Wind: 6mph
Humidity: 79%   Direction: 130°SE
Pressure: 30.02"   Gusts: NA
Location:  24.8649°N, 80.7192°W
Report Text: KMTH 212253Z AUTO 13005KT 10SM SCT028 24/21 A3002 RMK AO2 SLP164 T02440206 $
Loading
Personal Weather Stations






























Interactive Weather Map New forecast layout! Learn more

10-Day Weather Forecast

Advertisements
Track Severe Weather on mobile